createdAt,value
2023-03-20T00:00:59.524Z,94858.19
2023-03-20T00:03:28.250Z,94857.66
2023-03-20T00:05:56.148Z,94857.94
2023-03-20T00:08:24.028Z,94861.50
2023-03-20T00:10:52.012Z,94858.41
2023-03-20T00:13:26.109Z,94857.91
2023-03-20T00:15:55.913Z,94846.75
2023-03-20T00:18:24.976Z,94860.47
2023-03-20T00:20:53.714Z,94842.13
2023-03-20T00:23:21.843Z,94854.34
2023-03-20T00:25:49.789Z,94859.69
2023-03-20T00:28:40.930Z,94855.59
2023-03-20T00:31:20.178Z,94854.97
2023-03-20T00:33:48.424Z,94842.94
2023-03-20T00:36:16.283Z,94850.41
2023-03-20T00:38:44.336Z,94837.38
2023-03-20T00:41:24.442Z,94843.63
2023-03-20T00:43:54.796Z,94839.50
2023-03-20T00:46:24.880Z,94841.84
2023-03-20T00:48:53.456Z,94842.38
2023-03-20T00:51:21.440Z,94843.56
2023-03-20T00:53:49.299Z,94847.94
2023-03-20T00:56:33.243Z,94850.94
2023-03-20T00:59:02.737Z,94844.28
2023-03-20T01:01:32.571Z,94828.00
2023-03-20T01:04:01.902Z,94834.63
2023-03-20T01:06:31.428Z,94827.03
2023-03-20T01:09:00.197Z,94841.13
2023-03-20T01:11:28.749Z,94831.53
2023-03-20T01:13:57.332Z,94822.31
2023-03-20T01:16:27.204Z,94820.81
2023-03-20T01:18:56.886Z,94816.09
2023-03-20T01:21:25.068Z,94815.00
2023-03-20T01:23:52.974Z,94820.97
2023-03-20T01:26:25.238Z,94808.91
2023-03-20T01:28:53.119Z,94809.31
2023-03-20T01:31:21.020Z,94777.44
2023-03-20T01:33:49.085Z,94818.69
2023-03-20T01:36:22.247Z,94781.44
2023-03-20T01:38:56.534Z,94821.50
2023-03-20T01:41:25.778Z,94827.50
2023-03-20T01:43:54.369Z,94822.63
2023-03-20T01:46:25.886Z,94828.63
2023-03-20T01:49:09.105Z,94806.91
2023-03-20T01:51:38.382Z,94820.97
2023-03-20T01:54:10.406Z,94813.09
2023-03-20T01:56:42.378Z,94837.28
2023-03-20T01:59:13.753Z,94838.13
2023-03-20T02:01:43.334Z,94836.47
2023-03-20T02:04:13.043Z,94837.69
2023-03-20T02:06:45.047Z,94837.41
2023-03-20T02:09:13.365Z,94826.59
2023-03-20T02:11:42.814Z,94825.34
2023-03-20T02:14:11.573Z,94818.44
2023-03-20T02:16:39.594Z,94804.72
2023-03-20T02:19:15.655Z,94818.03
2023-03-20T02:22:31.298Z,94819.09
2023-03-20T02:25:37.838Z,94823.03
2023-03-20T02:28:39.962Z,94829.00
2023-03-20T02:31:32.755Z,94826.03
2023-03-20T02:34:38.673Z,94801.03
2023-03-20T02:37:49.940Z,94838.22
2023-03-20T02:40:26.267Z,94834.00
2023-03-20T02:43:00.372Z,94826.13
2023-03-20T02:45:30.652Z,94817.56
2023-03-20T02:48:11.725Z,94819.19
2023-03-20T02:50:49.665Z,94813.06
2023-03-20T02:53:29.327Z,94806.84
2023-03-20T02:56:04.332Z,94808.88
2023-03-20T02:58:39.832Z,94810.91
2023-03-20T03:01:15.024Z,94801.53
2023-03-20T03:03:48.733Z,94812.41
2023-03-20T03:06:23.032Z,94813.22
2023-03-20T03:09:00.131Z,94815.53
2023-03-20T03:11:28.124Z,94817.66
2023-03-20T03:13:58.074Z,94819.06
2023-03-20T03:16:30.231Z,94814.44
2023-03-20T03:19:07.133Z,94813.34
2023-03-20T03:21:37.356Z,94806.84
2023-03-20T03:24:07.781Z,94811.19
2023-03-20T03:26:39.161Z,94812.81
2023-03-20T03:29:13.518Z,94812.03
2023-03-20T03:31:42.618Z,94812.81
2023-03-20T03:34:14.892Z,94815.28
2023-03-20T03:36:52.736Z,94809.69
2023-03-20T03:39:28.500Z,94816.59
2023-03-20T03:42:02.943Z,94808.69
2023-03-20T03:44:36.583Z,94814.16
2023-03-20T03:47:08.822Z,94806.44
2023-03-20T03:49:40.883Z,94816.59
2023-03-20T03:52:13.037Z,94815.91
2023-03-20T03:54:46.599Z,94810.59
2023-03-20T03:57:17.950Z,94807.31
2023-03-20T03:59:49.022Z,94811.41
2023-03-20T04:02:19.764Z,94811.56
2023-03-20T04:04:51.845Z,94799.59
2023-03-20T04:07:19.949Z,94774.19
2023-03-20T04:09:49.284Z,94801.19
2023-03-20T04:12:38.187Z,94797.81
2023-03-20T04:15:07.276Z,94796.56
2023-03-20T04:17:35.936Z,94796.31
2023-03-20T04:20:06.967Z,94796.72
2023-03-20T04:22:35.154Z,94798.44
2023-03-20T04:25:06.952Z,94794.75
2023-03-20T04:27:34.929Z,94792.94
2023-03-20T04:30:02.964Z,94790.22
2023-03-20T04:32:31.046Z,94792.53
2023-03-20T04:34:59.051Z,94788.50
2023-03-20T04:37:26.927Z,94798.47
2023-03-20T04:39:54.821Z,94796.16
2023-03-20T04:42:24.060Z,94802.13
2023-03-20T04:44:52.000Z,94805.13
2023-03-20T04:47:19.902Z,94801.69
2023-03-20T04:49:47.821Z,94823.56
2023-03-20T04:52:15.834Z,94820.13
2023-03-20T04:54:43.751Z,94818.03
2023-03-20T04:57:11.636Z,94828.19
2023-03-20T04:59:41.009Z,94839.16
2023-03-20T05:02:08.918Z,94824.91
2023-03-20T05:04:36.879Z,94836.25
2023-03-20T05:07:04.790Z,94835.19
2023-03-20T05:09:32.659Z,94827.38
2023-03-20T05:12:00.518Z,94835.72
2023-03-20T05:14:28.452Z,94831.94
2023-03-20T05:16:57.819Z,94836.31
2023-03-20T05:19:25.796Z,94840.28
2023-03-20T05:21:53.687Z,94831.81
2023-03-20T05:24:22.189Z,94845.78
2023-03-20T05:26:50.105Z,94846.63
2023-03-20T05:29:18.012Z,94847.91
2023-03-20T05:31:45.967Z,94851.97
2023-03-20T05:34:15.230Z,94835.69
2023-03-20T05:36:43.149Z,94847.81
2023-03-20T05:39:11.693Z,94849.59
2023-03-20T05:41:39.668Z,94848.53
2023-03-20T05:44:07.652Z,94847.78
2023-03-20T05:46:35.562Z,94846.31
2023-03-20T05:49:03.595Z,94847.00
2023-03-20T05:51:32.858Z,94847.72
2023-03-20T05:54:00.802Z,94855.75
2023-03-20T05:56:28.754Z,94854.91
2023-03-20T05:58:56.618Z,94856.28
2023-03-20T06:01:24.510Z,94854.13
2023-03-20T06:03:52.386Z,94851.00
2023-03-20T06:06:20.518Z,94843.03
2023-03-20T06:08:49.834Z,94849.94
2023-03-20T06:11:17.804Z,94847.75
2023-03-20T06:13:45.744Z,94825.09
2023-03-20T06:16:13.678Z,94849.50
2023-03-20T06:18:41.633Z,94848.97
2023-03-20T06:21:09.613Z,94852.22
2023-03-20T06:23:37.489Z,94843.25
2023-03-20T06:26:07.275Z,94854.94
2023-03-20T06:28:35.328Z,94859.56
2023-03-20T06:31:03.346Z,94862.41
2023-03-20T06:33:31.453Z,94854.66
2023-03-20T06:35:59.407Z,94849.34
2023-03-20T06:38:27.375Z,94854.59
2023-03-20T06:40:55.273Z,94858.81
2023-03-20T06:43:24.605Z,94860.13
2023-03-20T06:45:52.694Z,94852.94
2023-03-20T06:48:22.076Z,94862.38
2023-03-20T06:50:50.327Z,94853.75
2023-03-20T06:53:18.532Z,94832.28
2023-03-20T06:55:48.303Z,94842.28
2023-03-20T06:58:16.771Z,94823.84
2023-03-20T07:00:46.689Z,94843.56
2023-03-20T07:03:15.829Z,94845.03
2023-03-20T07:05:44.876Z,94843.03
2023-03-20T07:08:13.118Z,94823.69
2023-03-20T07:10:40.967Z,94829.06
2023-03-20T07:13:09.346Z,94840.13
2023-03-20T07:15:38.456Z,94834.53
2023-03-20T07:18:08.514Z,94836.31
2023-03-20T07:20:36.450Z,94814.56
2023-03-20T07:23:04.337Z,94830.78
2023-03-20T07:25:42.148Z,94832.81
2023-03-20T07:28:10.668Z,94834.88
2023-03-20T07:30:38.642Z,94833.75
2023-03-20T07:33:07.963Z,94829.91
2023-03-20T07:35:36.557Z,94831.69
2023-03-20T07:38:04.690Z,94831.56
2023-03-20T07:40:33.087Z,94832.75
2023-03-20T07:43:01.277Z,94818.31
2023-03-20T07:45:29.404Z,94836.97
2023-03-20T07:47:57.602Z,94838.81
2023-03-20T07:50:26.940Z,94831.19
2023-03-20T07:52:54.827Z,94836.06
2023-03-20T07:55:22.712Z,94838.66
2023-03-20T07:57:51.095Z,94837.03
2023-03-20T08:00:20.347Z,94831.84
2023-03-20T08:02:49.818Z,94828.94
2023-03-20T08:05:18.609Z,94829.75
2023-03-20T08:07:48.006Z,94831.56
2023-03-20T08:10:16.646Z,94816.94
2023-03-20T08:12:44.842Z,94807.53
2023-03-20T08:15:13.157Z,94827.31
2023-03-20T08:17:43.809Z,94827.78
2023-03-20T08:20:13.166Z,94826.50
2023-03-20T08:22:41.350Z,94814.97
2023-03-20T08:25:11.936Z,94830.84
2023-03-20T08:27:40.227Z,94835.22
2023-03-20T08:30:10.034Z,94827.72
2023-03-20T08:32:38.853Z,94839.22
2023-03-20T08:35:16.326Z,94820.06
2023-03-20T08:37:50.117Z,94827.31
2023-03-20T08:40:19.792Z,94827.63
2023-03-20T08:42:47.760Z,94834.69
2023-03-20T08:45:17.039Z,94836.63
2023-03-20T08:47:45.004Z,94822.53
2023-03-20T08:50:13.361Z,94832.78
2023-03-20T08:52:43.972Z,94828.03
2023-03-20T08:55:12.435Z,94810.47
2023-03-20T08:57:41.841Z,94812.16
2023-03-20T09:00:12.872Z,94822.69
2023-03-20T09:02:41.185Z,94821.03
2023-03-20T09:05:09.929Z,94824.91
2023-03-20T09:07:38.219Z,94813.00
2023-03-20T09:10:07.164Z,94812.47
2023-03-20T09:12:36.008Z,94804.38
2023-03-20T09:15:06.892Z,94808.38
2023-03-20T09:17:34.890Z,94806.31
2023-03-20T09:20:02.889Z,94770.59
2023-03-20T09:22:31.044Z,94800.06
2023-03-20T09:24:58.982Z,94788.97
2023-03-20T09:27:26.914Z,94786.13
2023-03-20T09:29:54.844Z,94784.50
2023-03-20T09:32:24.094Z,94777.38
2023-03-20T09:34:52.101Z,94783.13
2023-03-20T09:37:20.197Z,94783.31
2023-03-20T09:39:48.286Z,94778.34
2023-03-20T09:42:30.081Z,94764.34
2023-03-20T09:45:06.707Z,94765.78
2023-03-20T09:47:42.047Z,94756.63
2023-03-20T09:50:24.165Z,94748.75
2023-03-20T09:52:59.276Z,94737.47
2023-03-20T09:55:35.275Z,94750.78
2023-03-20T09:58:13.429Z,94730.25
2023-03-20T10:00:45.997Z,94723.34
2023-03-20T10:03:20.980Z,94728.66
2023-03-20T10:05:55.552Z,94718.41
2023-03-20T10:08:29.339Z,94712.59
2023-03-20T10:11:07.751Z,94692.25
2023-03-20T10:13:56.778Z,94711.88
2023-03-20T10:16:39.160Z,94684.28
2023-03-20T10:19:19.186Z,94701.97
2023-03-20T10:21:49.533Z,94695.19
2023-03-20T10:24:23.401Z,94672.34
2023-03-20T10:26:54.437Z,94699.03
2023-03-20T10:29:33.298Z,94691.75
2023-03-20T10:32:10.027Z,94691.56
2023-03-20T10:34:54.447Z,94682.56
2023-03-20T10:37:41.449Z,94681.75
2023-03-20T10:40:24.766Z,94679.13
2023-03-20T10:42:55.117Z,94680.56
2023-03-20T10:45:32.731Z,94662.59
2023-03-20T10:48:06.070Z,94655.44
2023-03-20T10:50:42.531Z,94656.53
2023-03-20T10:53:22.456Z,94644.91
2023-03-20T10:55:51.343Z,94647.31
2023-03-20T10:58:23.672Z,94641.91
2023-03-20T11:00:59.371Z,94646.13
2023-03-20T11:03:31.812Z,94641.72
2023-03-20T11:06:09.619Z,94643.50
2023-03-20T11:08:41.358Z,94644.84
2023-03-20T11:11:10.449Z,94634.09
2023-03-20T11:13:40.388Z,94633.00
2023-03-20T11:16:19.435Z,94620.19
2023-03-20T11:18:49.225Z,94613.22
2023-03-20T11:21:22.798Z,94597.34
2023-03-20T11:23:51.450Z,94617.47
2023-03-20T11:26:20.932Z,94607.94
2023-03-20T11:28:51.866Z,94608.03
2023-03-20T11:31:26.029Z,94607.06
2023-03-20T11:34:01.859Z,94599.81
2023-03-20T11:36:33.231Z,94597.53
2023-03-20T11:39:07.615Z,94590.69
2023-03-20T11:41:35.617Z,94585.19
2023-03-20T11:44:03.556Z,94569.13
2023-03-20T11:46:31.990Z,94578.69
2023-03-20T11:49:06.612Z,94565.06
2023-03-20T11:51:38.169Z,94540.91
2023-03-20T11:54:09.117Z,94556.75
2023-03-20T11:56:37.765Z,94558.63
2023-03-20T11:59:14.279Z,94551.72
2023-03-20T12:01:48.907Z,94555.72
2023-03-20T12:04:18.810Z,94544.16
2023-03-20T12:06:54.363Z,94538.97
2023-03-20T12:09:32.832Z,94535.81
2023-03-20T12:12:03.682Z,94521.72
2023-03-20T12:14:38.926Z,94522.00
2023-03-20T12:17:33.746Z,94523.19
2023-03-20T12:20:06.701Z,94522.31
2023-03-20T12:22:43.182Z,94521.47
2023-03-20T12:25:21.273Z,94511.38
2023-03-20T12:27:54.127Z,94518.59
2023-03-20T12:30:32.512Z,94509.19
2023-03-20T12:33:05.567Z,94512.25
2023-03-20T12:35:37.742Z,94520.25
2023-03-20T12:38:19.760Z,94503.75
2023-03-20T12:40:52.498Z,94501.75
2023-03-20T12:43:26.667Z,94494.28
2023-03-20T12:46:01.592Z,94497.06
2023-03-20T12:48:50.775Z,94493.88
2023-03-20T12:51:27.035Z,94481.09
2023-03-20T12:54:09.051Z,94477.88
2023-03-20T12:56:59.814Z,94474.06
2023-03-20T12:59:34.677Z,94475.31
2023-03-20T13:02:16.546Z,94467.94
2023-03-20T13:04:57.693Z,94473.50
2023-03-20T13:07:59.812Z,94472.09
2023-03-20T13:10:36.283Z,94465.84
2023-03-20T13:13:16.069Z,94452.22
2023-03-20T13:16:05.146Z,94454.34
2023-03-20T13:18:47.121Z,94454.03
2023-03-20T13:21:21.007Z,94442.03
2023-03-20T13:23:57.826Z,94443.19
2023-03-20T13:26:37.663Z,94439.59
2023-03-20T13:29:12.877Z,94426.31
2023-03-20T13:31:51.540Z,94436.00
2023-03-20T13:34:31.675Z,94437.09
2023-03-20T13:37:23.452Z,94427.34
2023-03-20T13:40:01.980Z,94428.41
2023-03-20T13:42:37.989Z,94406.25
2023-03-20T13:45:13.421Z,94419.88
2023-03-20T13:47:41.534Z,94416.44
2023-03-20T13:50:25.249Z,94418.50
2023-03-20T13:53:00.817Z,94414.84
2023-03-20T13:55:37.785Z,94390.91
2023-03-20T13:58:29.696Z,94404.72
2023-03-20T14:01:06.011Z,94400.19
2023-03-20T14:03:37.613Z,94397.84
2023-03-20T14:06:19.046Z,94403.38
2023-03-20T14:08:49.979Z,94386.94
2023-03-20T14:11:36.040Z,94387.97
2023-03-20T14:14:11.586Z,94382.13
2023-03-20T14:16:39.674Z,94386.53
2023-03-20T14:19:15.313Z,94380.47
2023-03-20T14:21:47.469Z,94377.50
2023-03-20T14:24:19.649Z,94365.03
2023-03-20T14:26:51.389Z,94371.06
2023-03-20T14:29:34.624Z,94362.88
2023-03-20T14:32:22.143Z,94383.84
2023-03-20T14:34:52.040Z,94366.91
2023-03-20T14:37:31.815Z,94373.00
2023-03-20T14:40:05.260Z,94361.06
2023-03-20T14:42:42.078Z,94361.81
2023-03-20T14:45:29.277Z,94362.56
2023-03-20T14:48:02.485Z,94368.28
2023-03-20T14:50:35.557Z,94359.31
2023-03-20T14:53:17.575Z,94367.94
2023-03-20T14:55:53.975Z,94356.22
2023-03-20T14:58:53.429Z,94361.53
2023-03-20T15:01:44.545Z,94366.38
2023-03-20T15:04:26.495Z,94352.88
2023-03-20T15:06:58.956Z,94350.78
2023-03-20T15:09:29.350Z,94361.38
2023-03-20T15:12:04.100Z,94351.69
2023-03-20T15:14:39.356Z,94354.00
2023-03-20T15:17:19.500Z,94343.97
2023-03-20T15:19:50.719Z,94355.81
2023-03-20T15:22:21.779Z,94359.50
2023-03-20T15:24:53.773Z,94355.19
2023-03-20T15:27:22.630Z,94344.75
2023-03-20T15:29:53.396Z,94343.97
2023-03-20T15:32:23.824Z,94344.97
2023-03-20T15:34:52.348Z,94346.63
2023-03-20T15:37:24.586Z,94347.16
2023-03-20T15:39:59.177Z,94346.09
2023-03-20T15:42:28.177Z,94343.50
2023-03-20T15:44:56.940Z,94341.56
2023-03-20T15:47:27.064Z,94348.75
2023-03-20T15:49:57.410Z,94348.69
2023-03-20T15:52:32.857Z,94349.50
2023-03-20T15:55:04.042Z,94349.38
2023-03-20T15:57:36.087Z,94343.63
2023-03-20T16:00:06.652Z,94334.03
2023-03-20T16:02:37.177Z,94329.78
2023-03-20T16:05:06.299Z,94360.38
2023-03-20T16:07:34.717Z,94364.25
2023-03-20T16:10:02.755Z,94355.16
2023-03-20T16:12:30.804Z,94361.97
2023-03-20T16:15:00.629Z,94365.88
2023-03-20T16:17:29.028Z,94364.75
2023-03-20T16:19:58.396Z,94348.41
2023-03-20T16:22:29.186Z,94370.50
2023-03-20T16:25:01.167Z,94371.91
2023-03-20T16:27:31.583Z,94367.16
2023-03-20T16:29:59.908Z,94367.75
2023-03-20T16:32:37.015Z,94370.41
2023-03-20T16:35:16.887Z,94370.09
2023-03-20T16:37:49.631Z,94379.03
2023-03-20T16:40:25.226Z,94383.75
2023-03-20T16:42:54.914Z,94385.34
2023-03-20T16:45:30.531Z,94383.06
2023-03-20T16:48:25.770Z,94383.50
2023-03-20T16:51:02.268Z,94358.88
2023-03-20T16:53:38.079Z,94374.56
2023-03-20T16:56:11.550Z,94378.56
2023-03-20T16:58:41.240Z,94377.06
2023-03-20T17:01:15.870Z,94382.38
2023-03-20T17:03:51.107Z,94383.50
2023-03-20T17:06:44.615Z,94379.09
2023-03-20T17:09:27.609Z,94384.94
2023-03-20T17:12:02.241Z,94381.19
2023-03-20T17:14:30.903Z,94376.31
2023-03-20T17:17:00.329Z,94362.06
2023-03-20T17:19:28.457Z,94388.13
2023-03-20T17:22:03.556Z,94384.19
2023-03-20T17:24:31.690Z,94381.94
2023-03-20T17:26:59.721Z,94378.94
2023-03-20T17:29:27.764Z,94386.81
2023-03-20T17:31:55.905Z,94369.03
2023-03-20T17:34:24.020Z,94385.66
2023-03-20T17:36:52.102Z,94380.19
2023-03-20T17:39:22.573Z,94385.66
2023-03-20T17:41:50.743Z,94383.13
2023-03-20T17:44:18.660Z,94391.00
2023-03-20T17:46:58.695Z,94394.91
2023-03-20T17:49:28.280Z,94387.84
2023-03-20T17:51:56.868Z,94388.34
2023-03-20T17:54:26.800Z,94409.28
2023-03-20T17:56:54.804Z,94403.25
2023-03-20T17:59:24.994Z,94410.09
2023-03-20T18:01:53.474Z,94408.13
2023-03-20T18:04:25.513Z,94385.75
2023-03-20T18:06:53.759Z,94409.06
2023-03-20T18:09:21.869Z,94410.75
2023-03-20T18:11:51.156Z,94419.06
2023-03-20T18:14:19.412Z,94414.03
2023-03-20T18:16:47.304Z,94408.31
2023-03-20T18:19:24.419Z,94414.53
2023-03-20T18:21:52.618Z,94413.13
2023-03-20T18:24:20.692Z,94411.84
2023-03-20T18:26:48.972Z,94402.34
2023-03-20T18:29:18.778Z,94413.44
2023-03-20T18:31:49.025Z,94422.59
2023-03-20T18:34:17.721Z,94415.38
2023-03-20T18:36:46.816Z,94401.91
2023-03-20T18:39:18.721Z,94391.22
2023-03-20T18:41:46.813Z,94419.38
2023-03-20T18:44:15.002Z,94427.22
2023-03-20T18:46:46.967Z,94420.19
2023-03-20T18:49:16.793Z,94421.41
2023-03-20T18:51:47.412Z,94426.84
2023-03-20T18:54:15.459Z,94435.09
2023-03-20T18:56:43.382Z,94435.91
2023-03-20T18:59:13.950Z,94442.53
2023-03-20T19:01:42.215Z,94433.09
2023-03-20T19:04:11.808Z,94435.31
2023-03-20T19:06:39.876Z,94447.41
2023-03-20T19:09:10.932Z,94446.56
2023-03-20T19:11:39.112Z,94431.47
2023-03-20T19:14:07.044Z,94439.50
2023-03-20T19:16:38.011Z,94439.50
2023-03-20T19:19:08.169Z,94450.56
2023-03-20T19:21:37.544Z,94450.97
2023-03-20T19:24:07.760Z,94446.13
2023-03-20T19:26:37.529Z,94437.69
2023-03-20T19:29:09.181Z,94448.16
2023-03-20T19:31:37.564Z,94447.78
2023-03-20T19:34:06.812Z,94448.16
2023-03-20T19:36:38.174Z,94452.22
2023-03-20T19:39:09.233Z,94451.78
2023-03-20T19:41:37.985Z,94446.34
2023-03-20T19:44:07.011Z,94459.81
2023-03-20T19:46:40.352Z,94466.06
2023-03-20T19:49:19.069Z,94470.25
2023-03-20T19:51:49.654Z,94478.88
2023-03-20T19:54:17.961Z,94471.84
2023-03-20T19:56:46.033Z,94480.28
2023-03-20T19:59:16.559Z,94476.09
2023-03-20T20:01:45.609Z,94466.84
2023-03-20T20:04:13.666Z,94472.22
2023-03-20T20:06:42.005Z,94451.91
2023-03-20T20:09:11.666Z,94466.84
2023-03-20T20:11:39.647Z,94472.84
2023-03-20T20:14:13.667Z,94473.63
2023-03-20T20:16:45.604Z,94472.22
2023-03-20T20:19:18.688Z,94472.81
2023-03-20T20:24:37.674Z,94467.97
2023-03-20T20:27:16.865Z,94451.47
2023-03-20T20:29:51.861Z,94465.56
2023-03-20T20:32:23.138Z,94453.66
2023-03-20T20:38:28.182Z,94458.50
2023-03-20T20:40:31.951Z,94467.38
2023-03-20T20:43:02.467Z,94466.00
2023-03-20T20:45:32.323Z,94462.34
2023-03-20T20:48:01.203Z,94463.53
2023-03-20T20:50:30.970Z,94454.06
2023-03-20T20:52:59.244Z,94460.28
2023-03-20T20:55:27.543Z,94464.09
2023-03-20T20:57:57.261Z,94468.09
2023-03-20T21:00:37.510Z,94467.91
2023-03-20T21:03:09.559Z,94454.34
2023-03-20T21:05:41.372Z,94473.69
2023-03-20T21:08:09.473Z,94461.41
2023-03-20T21:10:37.519Z,94474.25
2023-03-20T21:13:08.333Z,94480.31
2023-03-20T21:15:39.642Z,94480.53
2023-03-20T21:18:07.979Z,94475.31
2023-03-20T21:20:36.159Z,94466.44
2023-03-20T21:23:04.334Z,94472.06
2023-03-20T21:25:40.133Z,94460.09
2023-03-20T21:28:11.585Z,94469.75
2023-03-20T21:30:51.103Z,94465.28
2023-03-20T21:33:30.402Z,94462.31
2023-03-20T21:35:58.520Z,94458.25
2023-03-20T21:41:15.177Z,94442.84
2023-03-20T21:43:47.159Z,94442.44
2023-03-20T21:52:48.810Z,94454.41
2023-03-20T21:55:15.050Z,94439.28
2023-03-20T22:03:10.831Z,94452.91
2023-03-20T22:06:45.747Z,94440.69
2023-03-20T22:37:28.368Z,94438.38
2023-03-20T22:45:03.271Z,94447.88
2023-03-20T22:47:32.438Z,94438.06
2023-03-20T22:50:01.973Z,94421.56
2023-03-20T22:52:45.468Z,94438.13
2023-03-20T22:55:16.205Z,94416.56
2023-03-20T22:57:56.024Z,94426.84
2023-03-20T23:00:28.270Z,94416.88
2023-03-20T23:03:06.767Z,94399.75
2023-03-20T23:05:43.602Z,94422.66
2023-03-20T23:08:13.054Z,94420.66
2023-03-20T23:10:44.951Z,94410.19
2023-03-20T23:13:13.973Z,94413.38
2023-03-20T23:15:41.994Z,94414.00
2023-03-20T23:18:11.035Z,94421.44
2023-03-20T23:20:39.198Z,94415.41
2023-03-20T23:23:08.686Z,94423.06
2023-03-20T23:25:39.558Z,94406.16
2023-03-20T23:28:09.383Z,94407.91
2023-03-20T23:30:46.522Z,94407.72
2023-03-20T23:33:17.675Z,94410.25
2023-03-20T23:35:46.445Z,94407.59
2023-03-20T23:38:15.814Z,94403.56
2023-03-20T23:40:50.186Z,94400.72
2023-03-20T23:43:18.498Z,94400.72
2023-03-20T23:45:46.921Z,94382.56
2023-03-20T23:48:15.061Z,94395.09
2023-03-20T23:50:52.559Z,94389.56
2023-03-20T23:53:23.466Z,94381.31
2023-03-20T23:55:53.916Z,94381.63
2023-03-20T23:58:23.549Z,94383.72
